createdAt,value
2022-12-13T00:02:53.278Z,-8.80
2022-12-13T00:05:50.173Z,-8.80
2022-12-13T00:08:47.105Z,-8.80
2022-12-13T00:11:44.635Z,-8.70
2022-12-13T00:14:41.676Z,-8.70
2022-12-13T00:17:38.558Z,-8.80
2022-12-13T00:20:39.627Z,-8.70
2022-12-13T00:23:36.662Z,-8.80
2022-12-13T00:26:34.101Z,-8.70
2022-12-13T00:29:31.146Z,-8.70
2022-12-13T00:32:28.041Z,-8.80
2022-12-13T00:35:25.071Z,-8.80
2022-12-13T00:38:23.347Z,-8.80
2022-12-13T00:41:20.993Z,-8.90
2022-12-13T00:44:20.129Z,-8.80
2022-12-13T00:47:18.994Z,-8.90
2022-12-13T00:50:15.990Z,-8.90
2022-12-13T00:53:12.956Z,-9.00
2022-12-13T00:56:13.285Z,-8.90
2022-12-13T00:59:15.809Z,-9.10
2022-12-13T01:02:13.088Z,-9.00
2022-12-13T01:05:11.486Z,-9.10
2022-12-13T01:08:08.531Z,-9.00
2022-12-13T01:11:06.841Z,-9.10
2022-12-13T01:14:03.760Z,-9.10
2022-12-13T01:17:00.759Z,-9.10
2022-12-13T01:19:57.792Z,-9.10
2022-12-13T01:22:54.646Z,-9.10
2022-12-13T01:25:51.792Z,-9.00
2022-12-13T01:28:49.362Z,-9.00
2022-12-13T01:31:46.489Z,-9.10
2022-12-13T01:34:43.438Z,-9.00
2022-12-13T01:37:40.356Z,-9.00
2022-12-13T01:40:45.118Z,-9.00
2022-12-13T01:43:41.877Z,-9.30
2022-12-13T01:46:38.750Z,-9.30
2022-12-13T01:49:35.984Z,-9.30
2022-12-13T01:52:34.325Z,-9.20
2022-12-13T01:55:41.673Z,-9.20
2022-12-13T01:58:40.073Z,-9.20
2022-12-13T02:01:38.154Z,-9.20
2022-12-13T02:04:45.362Z,-9.40
2022-12-13T02:07:45.035Z,-9.30
2022-12-13T02:10:43.733Z,-9.40
2022-12-13T02:13:40.845Z,-9.30
2022-12-13T02:17:12.532Z,-9.30
2022-12-13T02:20:37.457Z,-9.40
2022-12-13T02:24:10.601Z,-9.30
2022-12-13T02:27:49.004Z,-9.30
2022-12-13T02:30:55.908Z,-9.50
2022-12-13T02:34:21.829Z,-9.50
2022-12-13T02:37:33.134Z,-9.50
2022-12-13T02:40:49.154Z,-9.50
2022-12-13T02:44:21.958Z,-9.50
2022-12-13T02:47:23.764Z,-9.40
2022-12-13T02:50:22.479Z,-9.40
2022-12-13T02:53:22.536Z,-9.50
2022-12-13T02:56:19.298Z,-9.50
2022-12-13T02:59:16.216Z,-9.50
2022-12-13T03:02:39.282Z,-9.50
2022-12-13T03:06:11.031Z,-9.50
2022-12-13T03:09:38.237Z,-9.50
2022-12-13T03:13:00.252Z,-9.40
2022-12-13T03:16:00.633Z,-9.40
2022-12-13T03:19:07.592Z,-9.50
2022-12-13T03:22:07.015Z,-9.70
2022-12-13T03:25:03.995Z,-9.70
2022-12-13T03:28:02.182Z,-9.60
2022-12-13T03:30:59.624Z,-9.60
2022-12-13T03:33:56.620Z,-9.50
2022-12-13T03:36:53.891Z,-9.60
2022-12-13T03:39:51.174Z,-9.60
2022-12-13T03:42:48.399Z,-9.60
2022-12-13T03:45:45.229Z,-9.70
2022-12-13T03:48:42.119Z,-9.60
2022-12-13T03:51:38.982Z,-9.60
2022-12-13T03:54:35.976Z,-9.60
2022-12-13T03:57:32.886Z,-9.70
2022-12-13T04:00:29.736Z,-9.60
2022-12-13T04:03:26.676Z,-9.70
2022-12-13T04:06:26.367Z,-9.70
2022-12-13T04:09:26.717Z,-9.70
2022-12-13T04:12:45.434Z,-9.80
2022-12-13T04:15:48.978Z,-9.90
2022-12-13T04:18:45.959Z,-9.70
2022-12-13T04:21:42.794Z,-9.80
2022-12-13T04:24:39.601Z,-9.70
2022-12-13T04:27:38.035Z,-9.80
2022-12-13T04:30:35.981Z,-9.80
2022-12-13T04:33:33.720Z,-9.80
2022-12-13T04:36:32.719Z,-9.90
2022-12-13T04:39:34.400Z,-9.80
2022-12-13T04:42:31.670Z,-9.90
2022-12-13T04:45:28.586Z,-9.90
2022-12-13T04:48:31.405Z,-9.90
2022-12-13T04:51:28.883Z,-9.90
2022-12-13T04:54:25.693Z,-10.00
2022-12-13T04:57:22.851Z,-9.90
2022-12-13T05:00:22.088Z,-9.90
2022-12-13T05:03:18.994Z,-10.00
2022-12-13T05:06:27.166Z,-10.00
2022-12-13T05:09:25.018Z,-9.90
2022-12-13T05:12:23.390Z,-9.90
2022-12-13T05:15:20.595Z,-10.00
2022-12-13T05:18:17.409Z,-10.10
2022-12-13T05:21:14.269Z,-10.10
2022-12-13T05:24:11.151Z,-10.00
2022-12-13T05:27:25.841Z,-10.00
2022-12-13T05:30:23.422Z,-10.00
2022-12-13T05:33:20.294Z,-9.90
2022-12-13T05:36:17.850Z,-9.90
2022-12-13T05:39:28.382Z,-9.90
2022-12-13T05:42:26.500Z,-9.80
2022-12-13T05:45:23.956Z,-9.90
2022-12-13T05:48:24.535Z,-9.90
2022-12-13T05:51:21.939Z,-9.90
2022-12-13T05:54:18.799Z,-9.90
2022-12-13T05:57:15.646Z,-10.00
2022-12-13T06:00:30.079Z,-10.00
2022-12-13T06:03:27.913Z,-10.00
2022-12-13T06:06:25.386Z,-10.00
2022-12-13T06:09:23.042Z,-9.90
2022-12-13T06:12:31.662Z,-10.00
2022-12-13T06:15:34.722Z,-10.00
2022-12-13T06:18:34.994Z,-10.00
2022-12-13T06:21:41.212Z,-10.00
2022-12-13T06:24:42.651Z,-9.90
2022-12-13T06:27:39.650Z,-10.10
2022-12-13T06:30:37.095Z,-10.10
2022-12-13T06:33:39.694Z,-10.10
2022-12-13T06:36:36.752Z,-10.10
2022-12-13T06:39:34.678Z,-10.10
2022-12-13T06:42:31.679Z,-10.10
2022-12-13T06:45:28.519Z,-10.10
2022-12-13T06:48:26.123Z,-10.10
2022-12-13T06:51:32.270Z,-10.00
2022-12-13T06:54:30.185Z,-10.10
2022-12-13T06:57:27.028Z,-10.10
2022-12-13T07:00:28.507Z,-10.10
2022-12-13T07:03:34.947Z,-10.00
2022-12-13T07:06:31.812Z,-10.10
2022-12-13T07:09:32.657Z,-10.00
2022-12-13T07:12:29.492Z,-10.00
2022-12-13T07:15:26.428Z,-10.00
2022-12-13T07:18:23.334Z,-10.00
2022-12-13T07:21:21.891Z,-9.90
2022-12-13T07:24:19.352Z,-9.90
2022-12-13T07:27:16.223Z,-9.90
2022-12-13T07:30:13.215Z,-9.90
2022-12-13T07:33:10.107Z,-10.00
2022-12-13T07:36:11.691Z,-10.00
2022-12-13T07:39:08.511Z,-10.00
2022-12-13T07:42:05.380Z,-10.00
2022-12-13T07:45:02.255Z,-9.90
2022-12-13T07:48:06.466Z,-9.80
2022-12-13T07:51:07.349Z,-9.70
2022-12-13T07:54:06.749Z,-9.70
2022-12-13T07:57:04.630Z,-9.70
2022-12-13T08:00:01.763Z,-9.60
2022-12-13T08:02:58.623Z,-9.60
2022-12-13T08:06:22.045Z,-9.60
2022-12-13T08:09:18.928Z,-9.70
2022-12-13T08:12:15.840Z,-9.70
2022-12-13T08:15:20.133Z,-9.70
2022-12-13T08:18:16.970Z,-9.60
2022-12-13T08:21:52.760Z,-9.60
2022-12-13T08:24:32.308Z,-9.60
2022-12-13T08:27:29.524Z,-9.60
2022-12-13T08:30:26.359Z,-9.50
2022-12-13T08:33:23.300Z,-9.50
2022-12-13T08:36:24.038Z,-9.40
2022-12-13T08:39:20.851Z,-9.30
2022-12-13T08:42:20.299Z,-9.30
2022-12-13T08:45:17.357Z,-9.30
2022-12-13T08:48:14.217Z,-9.30
2022-12-13T08:51:14.817Z,-9.30
2022-12-13T08:54:30.998Z,-9.30
2022-12-13T08:57:28.074Z,-9.30
2022-12-13T09:00:24.971Z,-9.20
2022-12-13T09:03:22.389Z,-9.20
2022-12-13T09:06:19.399Z,-9.20
2022-12-13T09:09:16.836Z,-9.10
2022-12-13T09:12:30.691Z,-9.10
2022-12-13T09:15:33.933Z,-9.10
2022-12-13T09:18:36.226Z,-9.00
2022-12-13T09:21:33.601Z,-8.90
2022-12-13T09:24:35.958Z,-8.90
2022-12-13T09:27:39.841Z,-8.80
2022-12-13T09:30:39.045Z,-8.70
2022-12-13T09:33:41.583Z,-8.70
2022-12-13T09:36:38.853Z,-8.60
2022-12-13T09:39:35.670Z,-8.60
2022-12-13T09:42:34.833Z,-8.60
2022-12-13T09:45:44.347Z,-8.50
2022-12-13T09:48:42.148Z,-8.40
2022-12-13T09:52:04.499Z,-8.40
2022-12-13T09:55:24.570Z,-8.30
2022-12-13T09:58:27.783Z,-8.20
2022-12-13T10:01:25.056Z,-8.20
2022-12-13T10:04:21.979Z,-8.20
2022-12-13T10:07:23.438Z,-8.10
2022-12-13T10:10:20.852Z,-8.10
2022-12-13T10:13:37.066Z,-8.00
2022-12-13T10:16:37.365Z,-8.00
2022-12-13T10:19:46.675Z,-7.90
2022-12-13T10:22:52.199Z,-7.90
2022-12-13T10:26:03.322Z,-7.90
2022-12-13T10:29:05.315Z,-7.80
2022-12-13T10:32:13.331Z,-7.80
2022-12-13T10:35:27.313Z,-7.80
2022-12-13T10:38:32.283Z,-7.70
2022-12-13T10:41:38.666Z,-7.60
2022-12-13T10:44:35.499Z,-7.60
2022-12-13T10:47:32.403Z,-7.60
2022-12-13T10:50:31.021Z,-7.60
2022-12-13T10:53:55.032Z,-7.50
2022-12-13T10:56:54.120Z,-7.40
2022-12-13T10:59:52.379Z,-7.40
2022-12-13T11:02:55.728Z,-7.40
2022-12-13T11:06:18.003Z,-7.40
2022-12-13T11:09:38.729Z,-7.30
2022-12-13T11:12:36.635Z,-7.20
2022-12-13T11:15:37.831Z,-7.20
2022-12-13T11:18:37.409Z,-7.20
2022-12-13T11:21:37.857Z,-7.20
2022-12-13T11:24:40.781Z,-7.20
2022-12-13T11:28:26.920Z,-7.10
2022-12-13T11:31:59.654Z,-6.90
2022-12-13T11:35:27.133Z,-6.90
2022-12-13T11:38:57.907Z,-6.90
2022-12-13T11:42:40.609Z,-6.90
2022-12-13T11:45:47.065Z,-6.90
2022-12-13T11:48:58.839Z,-6.80
2022-12-13T11:52:12.297Z,-6.70
2022-12-13T11:55:35.577Z,-6.60
2022-12-13T11:59:26.008Z,-6.50
2022-12-13T12:02:40.099Z,-6.50
2022-12-13T12:05:55.830Z,-6.40
2022-12-13T12:09:14.262Z,-6.20
2022-12-13T12:12:27.092Z,-6.20
2022-12-13T12:15:31.258Z,-6.10
2022-12-13T12:18:28.760Z,-6.10
2022-12-13T12:22:14.839Z,-6.00
2022-12-13T12:25:45.360Z,-6.00
2022-12-13T12:29:52.216Z,-5.80
2022-12-13T12:33:42.372Z,-5.50
2022-12-13T12:37:08.763Z,-5.40
2022-12-13T12:40:12.185Z,-5.40
2022-12-13T12:43:35.571Z,-5.30
2022-12-13T12:47:56.396Z,-5.30
2022-12-13T12:50:57.938Z,-5.30
2022-12-13T12:54:26.177Z,-5.30
2022-12-13T12:57:56.139Z,-5.20
2022-12-13T13:01:20.715Z,-5.30
2022-12-13T13:04:22.276Z,-5.30
2022-12-13T13:07:51.479Z,-5.30
2022-12-13T13:10:50.499Z,-5.20
2022-12-13T13:14:01.315Z,-5.20
2022-12-13T13:17:20.941Z,-5.20
2022-12-13T13:20:23.409Z,-5.20
2022-12-13T13:23:39.437Z,-5.10
2022-12-13T13:26:39.999Z,-5.20
2022-12-13T13:29:43.216Z,-5.10
2022-12-13T13:32:41.119Z,-5.10
2022-12-13T13:35:48.068Z,-5.20
2022-12-13T13:38:51.349Z,-5.20
2022-12-13T13:42:20.080Z,-5.20
2022-12-13T13:45:23.922Z,-5.20
2022-12-13T13:49:01.602Z,-5.20
2022-12-13T13:52:26.890Z,-5.20
2022-12-13T13:56:10.534Z,-5.20
2022-12-13T13:59:47.278Z,-5.30
2022-12-13T14:03:34.317Z,-5.40
2022-12-13T14:06:51.196Z,-5.40
2022-12-13T14:10:18.140Z,-5.50
2022-12-13T14:14:01.946Z,-5.40
2022-12-13T14:17:20.087Z,-5.40
2022-12-13T14:20:44.062Z,-5.50
2022-12-13T14:24:16.626Z,-5.50
2022-12-13T14:27:39.660Z,-5.50
2022-12-13T14:30:47.829Z,-5.50
2022-12-13T14:33:57.984Z,-5.60
2022-12-13T14:37:03.624Z,-5.60
2022-12-13T14:40:02.705Z,-5.60
2022-12-13T14:43:00.615Z,-5.70
2022-12-13T14:46:04.172Z,-5.80
2022-12-13T14:49:05.019Z,-5.80
2022-12-13T14:52:07.764Z,-5.80
2022-12-13T14:55:06.100Z,-5.80
2022-12-13T14:58:19.641Z,-5.80
2022-12-13T15:01:34.788Z,-5.90
2022-12-13T15:04:35.810Z,-5.90
2022-12-13T15:07:41.221Z,-6.00
2022-12-13T15:10:48.330Z,-6.00
2022-12-13T15:13:52.900Z,-6.10
2022-12-13T15:16:54.089Z,-6.10
2022-12-13T15:19:51.039Z,-6.20
2022-12-13T15:22:48.546Z,-6.20
2022-12-13T15:25:46.692Z,-6.20
2022-12-13T15:28:53.760Z,-6.20
2022-12-13T15:31:50.723Z,-6.20
2022-12-13T15:34:47.712Z,-6.20
2022-12-13T15:37:46.772Z,-6.10
2022-12-13T15:40:49.342Z,-6.10
2022-12-13T15:43:51.262Z,-6.00
2022-12-13T15:46:51.229Z,-6.10
2022-12-13T15:50:01.859Z,-6.20
2022-12-13T15:53:03.541Z,-6.30
2022-12-13T15:56:03.491Z,-6.30
2022-12-13T15:59:23.215Z,-6.40
2022-12-13T16:02:25.381Z,-6.50
2022-12-13T16:05:48.723Z,-6.60
2022-12-13T16:08:50.027Z,-6.50
2022-12-13T16:11:58.820Z,-6.50
2022-12-13T16:15:29.442Z,-6.60
2022-12-13T16:18:42.785Z,-6.60
2022-12-13T16:21:39.719Z,-6.60
2022-12-13T16:24:36.950Z,-6.60
2022-12-13T16:27:33.814Z,-6.60
2022-12-13T16:30:54.530Z,-6.80
2022-12-13T16:33:51.537Z,-6.80
2022-12-13T16:36:48.500Z,-6.90
2022-12-13T16:39:46.414Z,-6.90
2022-12-13T16:42:43.270Z,-6.90
2022-12-13T16:45:44.836Z,-7.00
2022-12-13T16:48:41.744Z,-7.00
2022-12-13T16:51:41.411Z,-7.00
2022-12-13T16:54:41.870Z,-7.00
2022-12-13T16:57:39.828Z,-7.00
2022-12-13T17:00:36.695Z,-7.00
2022-12-13T17:03:33.513Z,-7.10
2022-12-13T17:06:30.443Z,-7.10
2022-12-13T17:09:27.290Z,-7.20
2022-12-13T17:12:26.412Z,-7.20
2022-12-13T17:15:23.485Z,-7.20
2022-12-13T17:18:20.374Z,-7.20
2022-12-13T17:21:17.618Z,-7.30
2022-12-13T17:24:15.315Z,-7.30
2022-12-13T17:27:12.309Z,-7.30
2022-12-13T17:30:15.162Z,-7.40
2022-12-13T17:33:13.242Z,-7.40
2022-12-13T17:36:12.004Z,-7.40
2022-12-13T17:39:11.121Z,-7.40
2022-12-13T17:42:08.375Z,-7.50
2022-12-13T17:45:06.089Z,-7.50
2022-12-13T17:48:03.015Z,-7.40
2022-12-13T17:51:00.630Z,-7.50
2022-12-13T17:53:57.487Z,-7.50
2022-12-13T17:56:54.916Z,-7.40
2022-12-13T17:59:51.959Z,-7.40
2022-12-13T18:02:55.433Z,-7.50
2022-12-13T18:05:58.398Z,-7.50
2022-12-13T18:08:55.355Z,-7.50
2022-12-13T18:11:52.403Z,-7.50
2022-12-13T18:14:50.879Z,-7.50
2022-12-13T18:18:10.926Z,-7.50
2022-12-13T18:21:07.812Z,-7.60
2022-12-13T18:24:06.778Z,-7.60
2022-12-13T18:27:03.828Z,-7.50
2022-12-13T18:30:01.387Z,-7.50
2022-12-13T18:32:59.023Z,-7.50
2022-12-13T18:35:55.898Z,-7.40
2022-12-13T18:38:53.108Z,-7.40
2022-12-13T18:41:49.975Z,-7.40
2022-12-13T18:44:50.836Z,-7.40
2022-12-13T18:47:51.925Z,-7.40
2022-12-13T18:50:49.063Z,-7.40
2022-12-13T18:53:45.960Z,-7.50
2022-12-13T18:56:42.879Z,-7.50
2022-12-13T18:59:39.716Z,-7.40
2022-12-13T19:02:36.666Z,-7.50
2022-12-13T19:05:33.673Z,-7.50
2022-12-13T19:08:30.769Z,-7.50
2022-12-13T19:11:28.311Z,-7.50
2022-12-13T19:14:27.153Z,-7.60
2022-12-13T19:17:24.147Z,-7.60
2022-12-13T19:20:21.256Z,-7.60
2022-12-13T19:23:19.676Z,-7.60
2022-12-13T19:26:16.808Z,-7.60
2022-12-13T19:29:14.179Z,-7.60
2022-12-13T19:32:11.071Z,-7.60
2022-12-13T19:35:08.650Z,-7.50
2022-12-13T19:38:05.555Z,-7.50
2022-12-13T19:41:17.277Z,-7.50
2022-12-13T19:44:14.267Z,-7.40
2022-12-13T19:47:11.152Z,-7.50
2022-12-13T19:50:08.509Z,-7.50
2022-12-13T19:53:06.856Z,-7.50
2022-12-13T19:56:10.793Z,-7.50
2022-12-13T19:59:08.021Z,-7.50
2022-12-13T20:02:05.822Z,-7.50
2022-12-13T20:05:02.821Z,-7.50
2022-12-13T20:07:59.985Z,-7.50
2022-12-13T20:11:04.662Z,-7.40
2022-12-13T20:14:01.631Z,-7.50
2022-12-13T20:16:58.482Z,-7.50
2022-12-13T20:19:55.639Z,-7.60
2022-12-13T20:22:52.642Z,-7.60
2022-12-13T20:26:02.677Z,-7.70
2022-12-13T20:29:00.149Z,-7.70
2022-12-13T20:31:57.025Z,-7.70
2022-12-13T20:34:55.064Z,-7.70
2022-12-13T20:37:52.915Z,-7.60
2022-12-13T20:40:49.752Z,-7.60
2022-12-13T20:43:48.236Z,-7.60
2022-12-13T20:46:45.598Z,-7.60
2022-12-13T20:49:44.232Z,-7.60
2022-12-13T20:52:50.638Z,-7.50
2022-12-13T20:55:48.338Z,-7.60
2022-12-13T20:58:45.857Z,-7.50
2022-12-13T21:01:44.849Z,-7.50
2022-12-13T21:04:46.026Z,-7.50
2022-12-13T21:08:01.385Z,-7.60
2022-12-13T21:11:19.371Z,-7.60
2022-12-13T21:14:26.005Z,-7.60
2022-12-13T21:17:22.930Z,-7.60
2022-12-13T21:20:19.833Z,-7.60
2022-12-13T21:23:16.667Z,-7.60
2022-12-13T21:26:13.526Z,-7.60
2022-12-13T21:29:12.657Z,-7.50
2022-12-13T21:32:09.527Z,-7.60
2022-12-13T21:35:09.435Z,-7.60
2022-12-13T21:38:06.296Z,-7.60
2022-12-13T21:41:04.577Z,-7.60
2022-12-13T21:44:01.591Z,-7.60
2022-12-13T21:47:14.020Z,-7.60
2022-12-13T21:50:10.976Z,-7.50
2022-12-13T21:53:07.804Z,-7.40
2022-12-13T21:56:28.102Z,-7.30
2022-12-13T21:59:27.676Z,-7.30
2022-12-13T22:02:24.556Z,-7.20
2022-12-13T22:05:21.969Z,-7.10
2022-12-13T22:08:18.929Z,-7.10
2022-12-13T22:11:21.307Z,-7.10
2022-12-13T22:14:18.938Z,-7.10
2022-12-13T22:17:16.894Z,-6.90
2022-12-13T22:20:15.328Z,-6.90
2022-12-13T22:23:12.448Z,-6.80
2022-12-13T22:26:09.273Z,-6.80
2022-12-13T22:29:06.209Z,-6.80
2022-12-13T22:32:03.279Z,-6.70
2022-12-13T22:35:00.262Z,-6.70
2022-12-13T22:38:01.370Z,-6.70
2022-12-13T22:41:06.175Z,-6.70
2022-12-13T22:44:03.197Z,-6.70
2022-12-13T22:47:00.085Z,-6.70
2022-12-13T22:49:56.897Z,-6.70
2022-12-13T22:52:53.737Z,-6.60
2022-12-13T22:55:50.567Z,-6.60
2022-12-13T22:58:51.937Z,-6.60
2022-12-13T23:01:48.836Z,-6.50
2022-12-13T23:04:45.695Z,-6.60
2022-12-13T23:07:42.510Z,-6.50
2022-12-13T23:11:04.106Z,-6.40
2022-12-13T23:14:04.546Z,-6.40
2022-12-13T23:17:02.693Z,-6.40
2022-12-13T23:19:59.684Z,-6.40
2022-12-13T23:22:56.554Z,-6.30
2022-12-13T23:25:53.425Z,-6.30
2022-12-13T23:28:54.496Z,-6.30
2022-12-13T23:31:51.353Z,-6.30
2022-12-13T23:34:48.193Z,-6.20
2022-12-13T23:37:45.005Z,-6.20
2022-12-13T23:40:45.376Z,-6.10
2022-12-13T23:43:44.421Z,-6.10
2022-12-13T23:46:48.129Z,-6.10
2022-12-13T23:49:45.780Z,-6.10
2022-12-13T23:52:45.280Z,-6.00
2022-12-13T23:55:42.097Z,-6.00
2022-12-13T23:58:40.986Z,-6.00
